sensor_id;sensor_type;location;lat;lon;timestamp;pressure;altitude;pressure_sealevel;temperature;humidity
62152;BME280;48139;47.474;19.034;2023-02-17T04:42:12;101310.09;;;2.35;100.00
62152;BME280;48139;47.474;19.034;2023-02-17T04:45:16;101310.09;;;2.35;100.00
62152;BME280;48139;47.474;19.034;2023-02-17T04:48:19;101315.97;;;1.83;100.00
62152;BME280;48139;47.474;19.034;2023-02-17T04:51:22;101329.75;;;1.89;100.00
62152;BME280;48139;47.474;19.034;2023-02-17T04:54:24;101322.91;;;1.91;100.00
62152;BME280;48139;47.474;19.034;2023-02-17T04:57:27;101318.59;;;1.95;100.00
62152;BME280;48139;47.474;19.034;2023-02-17T05:00:30;101307.41;;;1.97;100.00
62152;BME280;48139;47.474;19.034;2023-02-17T05:03:33;101316.03;;;2.02;100.00
62152;BME280;48139;47.474;19.034;2023-02-17T05:06:35;101331.56;;;2.10;100.00
62152;BME280;48139;47.474;19.034;2023-02-17T05:09:38;101314.34;;;2.12;100.00
62152;BME280;48139;47.474;19.034;2023-02-17T05:12:40;101319.53;;;2.17;100.00
62152;BME280;48139;47.474;19.034;2023-02-17T05:15:44;101316.97;;;2.23;100.00
62152;BME280;48139;47.474;19.034;2023-02-17T05:18:47;101325.63;;;2.41;100.00
62152;BME280;48139;47.474;19.034;2023-02-17T05:21:50;101322.16;;;2.44;100.00
62152;BME280;48139;47.474;19.034;2023-02-17T05:24:53;101320.41;;;2.25;100.00
62152;BME280;48139;47.474;19.034;2023-02-17T05:27:56;101315.28;;;2.37;100.00
62152;BME280;48139;47.474;19.034;2023-02-17T05:30:59;101317.00;;;2.36;100.00
62152;BME280;48139;47.474;19.034;2023-02-17T05:34:03;101314.41;;;2.50;100.00
62152;BME280;48139;47.474;19.034;2023-02-17T05:37:05;101307.53;;;2.73;100.00
62152;BME280;48139;47.474;19.034;2023-02-17T05:40:08;101316.13;;;2.95;100.00
62152;BME280;48139;47.474;19.034;2023-02-17T05:43:12;101315.28;;;2.89;100.00
62152;BME280;48139;47.474;19.034;2023-02-17T05:46:14;101317.00;;;2.88;100.00
62152;BME280;48139;47.474;19.034;2023-02-17T05:49:17;101308.34;;;3.16;100.00
62152;BME280;48139;47.474;19.034;2023-02-17T05:52:20;101314.34;;;3.38;100.00
62152;BME280;48139;47.474;19.034;2023-02-17T05:55:22;101313.47;;;3.47;100.00
62152;BME280;48139;47.474;19.034;2023-02-17T05:58:25;101320.41;;;3.43;100.00
62152;BME280;48139;47.474;19.034;2023-02-17T06:01:28;101321.25;;;3.33;100.00
62152;BME280;48139;47.474;19.034;2023-02-17T06:04:32;101326.41;;;3.38;100.00
62152;BME280;48139;47.474;19.034;2023-02-17T06:07:34;101320.38;;;3.49;100.00
62152;BME280;48139;47.474;19.034;2023-02-17T06:10:37;101316.00;;;3.67;100.00
62152;BME280;48139;47.474;19.034;2023-02-17T06:13:40;101317.72;;;3.64;100.00
62152;BME280;48139;47.474;19.034;2023-02-17T06:16:42;101313.41;;;3.63;100.00
62152;BME280;48139;47.474;19.034;2023-02-17T06:19:45;101320.31;;;3.63;100.00
62152;BME280;48139;47.474;19.034;2023-02-17T06:22:48;101327.19;;;3.73;100.00
62152;BME280;48139;47.474;19.034;2023-02-17T06:25:50;101334.91;;;3.90;100.00
62152;BME280;48139;47.474;19.034;2023-02-17T06:28:54;101339.19;;;3.95;100.00
62152;BME280;48139;47.474;19.034;2023-02-17T06:31:56;101334.00;;;3.98;100.00
62152;BME280;48139;47.474;19.034;2023-02-17T06:34:59;101340.94;;;3.93;100.00
62152;BME280;48139;47.474;19.034;2023-02-17T06:38:02;101334.87;;;3.96;100.00
62152;BME280;48139;47.474;19.034;2023-02-17T06:41:05;101333.13;;;4.04;100.00
62152;BME280;48139;47.474;19.034;2023-02-17T06:44:08;101330.41;;;4.27;100.00
62152;BME280;48139;47.474;19.034;2023-02-17T06:47:11;101322.53;;;4.42;100.00
62152;BME280;48139;47.474;19.034;2023-02-17T06:50:16;101328.37;;;4.71;100.00
62152;BME280;48139;47.474;19.034;2023-02-17T06:53:19;101338.66;;;4.86;100.00
62152;BME280;48139;47.474;19.034;2023-02-17T06:56:21;101325.66;;;4.83;100.00
62152;BME280;48139;47.474;19.034;2023-02-17T06:59:25;101332.53;;;4.92;100.00
62152;BME280;48139;47.474;19.034;2023-02-17T07:02:27;101323.59;;;5.22;100.00
62152;BME280;48139;47.474;19.034;2023-02-17T07:05:33;101331.28;;;5.33;100.00
62152;BME280;48139;47.474;19.034;2023-02-17T07:08:36;101324.19;;;5.48;100.00
62152;BME280;48139;47.474;19.034;2023-02-17T07:11:39;101318.00;;;5.60;100.00
62152;BME280;48139;47.474;19.034;2023-02-17T07:14:41;101320.59;;;5.61;100.00
62152;BME280;48139;47.474;19.034;2023-02-17T07:17:44;101324.87;;;5.64;100.00
62152;BME280;48139;47.474;19.034;2023-02-17T07:20:46;101328.25;;;5.74;100.00
62152;BME280;48139;47.474;19.034;2023-02-17T07:23:50;101332.53;;;5.78;100.00
62152;BME280;48139;47.474;19.034;2023-02-17T07:26:52;101325.66;;;5.74;100.00
62152;BME280;48139;47.474;19.034;2023-02-17T07:29:57;101327.22;;;5.87;100.00
62152;BME280;48139;47.474;19.034;2023-02-17T07:33:00;101338.47;;;5.90;100.00
62152;BME280;48139;47.474;19.034;2023-02-17T07:36:07;101322.78;;;5.98;100.00
62152;BME280;48139;47.474;19.034;2023-02-17T07:39:09;101324.50;;;5.97;100.00
62152;BME280;48139;47.474;19.034;2023-02-17T07:42:12;101323.66;;;5.97;100.00
62152;BME280;48139;47.474;19.034;2023-02-17T07:45:15;101328.78;;;6.03;100.00
62152;BME280;48139;47.474;19.034;2023-02-17T07:48:18;101315.84;;;5.98;100.00
62152;BME280;48139;47.474;19.034;2023-02-17T07:51:21;101314.91;;;6.01;100.00
62152;BME280;48139;47.474;19.034;2023-02-17T07:54:25;101308.69;;;6.13;100.00
62152;BME280;48139;47.474;19.034;2023-02-17T07:57:28;101305.19;;;6.17;100.00
62152;BME280;48139;47.474;19.034;2023-02-17T08:00:31;101314.53;;;6.30;100.00
62152;BME280;48139;47.474;19.034;2023-02-17T08:03:38;101303.88;;;6.46;100.00
62152;BME280;48139;47.474;19.034;2023-02-17T08:06:40;101297.19;;;6.84;100.00
62152;BME280;48139;47.474;19.034;2023-02-17T08:09:43;101308.81;;;7.14;98.45
62152;BME280;48139;47.474;19.034;2023-02-17T08:13:04;101311.78;;;7.43;96.38
62152;BME280;48139;47.474;19.034;2023-02-17T08:16:21;101311.44;;;7.60;96.84
62152;BME280;48139;47.474;19.034;2023-02-17T08:19:25;101315.69;;;7.64;94.09
62152;BME280;48139;47.474;19.034;2023-02-17T08:22:41;101316.91;;;7.89;92.15
62152;BME280;48139;47.474;19.034;2023-02-17T08:25:43;101321.06;;;8.41;88.69
62152;BME280;48139;47.474;19.034;2023-02-17T08:28:47;101327.41;;;9.36;80.10
62152;BME280;48139;47.474;19.034;2023-02-17T08:31:52;101329.03;;;10.60;67.89
62152;BME280;48139;47.474;19.034;2023-02-17T08:34:55;101336.53;;;11.73;60.31
62152;BME280;48139;47.474;19.034;2023-02-17T08:37:58;101332.06;;;11.77;58.71
62152;BME280;48139;47.474;19.034;2023-02-17T08:41:01;101326.97;;;12.19;56.01
62152;BME280;48139;47.474;19.034;2023-02-17T08:44:08;101329.81;;;12.79;51.90
62152;BME280;48139;47.474;19.034;2023-02-17T08:47:11;101326.47;;;12.31;52.19
62152;BME280;48139;47.474;19.034;2023-02-17T08:50:14;101320.47;;;11.32;56.48
62152;BME280;48139;47.474;19.034;2023-02-17T08:53:21;101317.94;;;10.24;61.22
62152;BME280;48139;47.474;19.034;2023-02-17T08:56:25;101313.97;;;10.09;60.68
62152;BME280;48139;47.474;19.034;2023-02-17T08:59:28;101312.25;;;10.08;60.94
62152;BME280;48139;47.474;19.034;2023-02-17T09:02:30;101311.25;;;10.12;60.33
62152;BME280;48139;47.474;19.034;2023-02-17T09:05:33;101319.88;;;10.18;60.37
62152;BME280;48139;47.474;19.034;2023-02-17T09:08:38;101326.41;;;10.32;61.18
62152;BME280;48139;47.474;19.034;2023-02-17T09:11:43;101322.78;;;10.36;61.20
62152;BME280;48139;47.474;19.034;2023-02-17T09:14:46;101312.97;;;10.71;60.60
62152;BME280;48139;47.474;19.034;2023-02-17T09:17:48;101320.94;;;11.19;57.20
62152;BME280;48139;47.474;19.034;2023-02-17T09:20:52;101317.66;;;11.62;55.36
62152;BME280;48139;47.474;19.034;2023-02-17T09:23:55;101318.25;;;11.95;53.28
62152;BME280;48139;47.474;19.034;2023-02-17T09:26:57;101305.13;;;12.62;50.46
62152;BME280;48139;47.474;19.034;2023-02-17T09:30:01;101305.34;;;12.99;49.87
62152;BME280;48139;47.474;19.034;2023-02-17T09:33:05;101291.44;;;12.96;49.60
62152;BME280;48139;47.474;19.034;2023-02-17T09:36:11;101292.22;;;12.77;48.85
62152;BME280;48139;47.474;19.034;2023-02-17T09:39:14;101294.31;;;12.89;49.17
62152;BME280;48139;47.474;19.034;2023-02-17T09:42:20;101299.19;;;12.78;49.69
62152;BME280;48139;47.474;19.034;2023-02-17T09:45:26;101299.62;;;12.68;50.32
62152;BME280;48139;47.474;19.034;2023-02-17T09:48:31;101301.94;;;12.53;50.46
62152;BME280;48139;47.474;19.034;2023-02-17T09:51:44;101302.97;;;12.49;50.75
62152;BME280;48139;47.474;19.034;2023-02-17T09:55:10;101294.94;;;12.54;50.07
62152;BME280;48139;47.474;19.034;2023-02-17T09:58:19;101295.41;;;12.64;50.29
62152;BME280;48139;47.474;19.034;2023-02-17T10:01:28;101285.13;;;12.58;50.00
62152;BME280;48139;47.474;19.034;2023-02-17T10:04:43;101295.16;;;12.26;50.10
62152;BME280;48139;47.474;19.034;2023-02-17T10:07:58;101289.47;;;12.15;51.70
62152;BME280;48139;47.474;19.034;2023-02-17T10:11:27;101283.94;;;11.99;51.89
62152;BME280;48139;47.474;19.034;2023-02-17T10:14:35;101272.97;;;11.88;53.08
62152;BME280;48139;47.474;19.034;2023-02-17T10:20:55;101262.72;;;11.57;53.76
62152;BME280;48139;47.474;19.034;2023-02-17T10:23:59;101262.50;;;11.63;54.13
62152;BME280;48139;47.474;19.034;2023-02-17T10:35:01;101245.88;;;11.88;54.02
62152;BME280;48139;47.474;19.034;2023-02-17T10:40:45;101243.37;;;11.85;55.35
62152;BME280;48139;47.474;19.034;2023-02-17T10:43:49;101241.88;;;11.54;56.46
62152;BME280;48139;47.474;19.034;2023-02-17T10:46:53;101234.72;;;11.35;59.14
62152;BME280;48139;47.474;19.034;2023-02-17T10:49:56;101241.72;;;11.11;60.21
62152;BME280;48139;47.474;19.034;2023-02-17T10:52:59;101234.63;;;11.13;61.24
62152;BME280;48139;47.474;19.034;2023-02-17T10:59:36;101227.75;;;11.33;60.35
62152;BME280;48139;47.474;19.034;2023-02-17T11:02:43;101225.53;;;11.23;60.77
62152;BME280;48139;47.474;19.034;2023-02-17T11:06:21;101228.56;;;11.36;61.75
62152;BME280;48139;47.474;19.034;2023-02-17T11:09:26;101226.59;;;11.42;60.80
62152;BME280;48139;47.474;19.034;2023-02-17T11:12:33;101211.62;;;11.44;61.66
62152;BME280;48139;47.474;19.034;2023-02-17T11:15:44;101214.16;;;11.47;60.58
62152;BME280;48139;47.474;19.034;2023-02-17T11:18:48;101210.53;;;11.73;60.10
62152;BME280;48139;47.474;19.034;2023-02-17T11:21:54;101211.97;;;11.82;58.57
62152;BME280;48139;47.474;19.034;2023-02-17T11:24:58;101195.59;;;11.75;58.79
62152;BME280;48139;47.474;19.034;2023-02-17T11:28:05;101194.94;;;11.68;59.08
62152;BME280;48139;47.474;19.034;2023-02-17T11:31:29;101193.59;;;11.58;58.81
62152;BME280;48139;47.474;19.034;2023-02-17T11:34:36;101189.25;;;11.57;59.58
62152;BME280;48139;47.474;19.034;2023-02-17T11:37:41;101179.63;;;11.58;59.46
62152;BME280;48139;47.474;19.034;2023-02-17T11:43:58;101174.94;;;11.89;57.61
62152;BME280;48139;47.474;19.034;2023-02-17T11:50:51;101166.50;;;12.03;57.11
62152;BME280;48139;47.474;19.034;2023-02-17T11:57:41;101168.34;;;11.79;58.21
62152;BME280;48139;47.474;19.034;2023-02-17T12:04:22;101159.37;;;11.85;58.67
62152;BME280;48139;47.474;19.034;2023-02-17T12:07:41;101153.69;;;11.95;58.55
62152;BME280;48139;47.474;19.034;2023-02-17T12:10:58;101147.94;;;12.07;57.35
62152;BME280;48139;47.474;19.034;2023-02-17T12:21:13;101133.59;;;11.94;59.01
62152;BME280;48139;47.474;19.034;2023-02-17T12:27:42;101121.75;;;11.84;61.65
62152;BME280;48139;47.474;19.034;2023-02-17T12:37:48;101103.50;;;12.03;63.42
62152;BME280;48139;47.474;19.034;2023-02-17T12:40:59;101118.84;;;12.12;63.63
62152;BME280;48139;47.474;19.034;2023-02-17T12:44:12;101122.69;;;12.25;63.93
62152;BME280;48139;47.474;19.034;2023-02-17T12:47:22;101114.44;;;12.55;62.48
62152;BME280;48139;47.474;19.034;2023-02-17T12:50:51;101108.53;;;12.88;61.78
62152;BME280;48139;47.474;19.034;2023-02-17T13:00:28;101114.09;;;13.40;59.62
62152;BME280;48139;47.474;19.034;2023-02-17T13:03:35;101108.31;;;13.32;60.49
62152;BME280;48139;47.474;19.034;2023-02-17T13:06:39;101104.78;;;13.14;61.26
62152;BME280;48139;47.474;19.034;2023-02-17T13:09:47;101097.41;;;13.02;61.77
62152;BME280;48139;47.474;19.034;2023-02-17T13:13:05;101106.59;;;12.73;63.09
62152;BME280;48139;47.474;19.034;2023-02-17T13:16:13;101094.44;;;12.50;64.50
62152;BME280;48139;47.474;19.034;2023-02-17T13:19:29;101094.84;;;12.41;66.88
62152;BME280;48139;47.474;19.034;2023-02-17T13:22:33;101104.47;;;12.42;70.85
62152;BME280;48139;47.474;19.034;2023-02-17T13:25:36;101110.50;;;12.24;77.21
62152;BME280;48139;47.474;19.034;2023-02-17T13:28:40;101106.66;;;12.11;76.95
62152;BME280;48139;47.474;19.034;2023-02-17T13:31:47;101108.44;;;11.89;80.57
62152;BME280;48139;47.474;19.034;2023-02-17T13:35:27;101103.00;;;11.71;87.90
62152;BME280;48139;47.474;19.034;2023-02-17T13:38:29;101097.63;;;11.75;84.63
62152;BME280;48139;47.474;19.034;2023-02-17T13:41:56;101096.06;;;11.92;82.33
62152;BME280;48139;47.474;19.034;2023-02-17T13:44:59;101099.66;;;11.90;83.33
62152;BME280;48139;47.474;19.034;2023-02-17T13:48:23;101100.47;;;11.92;88.89
62152;BME280;48139;47.474;19.034;2023-02-17T13:51:28;101082.78;;;12.17;88.49
62152;BME280;48139;47.474;19.034;2023-02-17T13:54:30;101080.81;;;12.42;83.29
62152;BME280;48139;47.474;19.034;2023-02-17T13:57:35;101078.25;;;12.41;81.01
62152;BME280;48139;47.474;19.034;2023-02-17T14:00:41;101071.84;;;12.46;82.69
62152;BME280;48139;47.474;19.034;2023-02-17T14:03:50;101054.16;;;12.50;78.38
62152;BME280;48139;47.474;19.034;2023-02-17T14:06:53;101057.31;;;12.58;81.79
62152;BME280;48139;47.474;19.034;2023-02-17T14:09:58;101053.34;;;12.68;79.41
62152;BME280;48139;47.474;19.034;2023-02-17T14:13:01;101049.75;;;12.71;80.08
62152;BME280;48139;47.474;19.034;2023-02-17T14:16:04;101043.84;;;12.66;80.17
62152;BME280;48139;47.474;19.034;2023-02-17T14:19:16;101049.47;;;12.77;80.09
62152;BME280;48139;47.474;19.034;2023-02-17T14:22:28;101048.50;;;12.79;80.63
62152;BME280;48139;47.474;19.034;2023-02-17T14:25:34;101047.44;;;12.83;80.79
62152;BME280;48139;47.474;19.034;2023-02-17T14:28:37;101048.28;;;12.84;81.18
62152;BME280;48139;47.474;19.034;2023-02-17T14:31:51;101047.41;;;12.65;83.68
62152;BME280;48139;47.474;19.034;2023-02-17T14:41:27;101042.75;;;12.51;81.45
62152;BME280;48139;47.474;19.034;2023-02-17T14:44:30;101044.41;;;12.33;83.60
62152;BME280;48139;47.474;19.034;2023-02-17T14:47:33;101041.94;;;12.30;83.54
62152;BME280;48139;47.474;19.034;2023-02-17T14:50:36;101040.25;;;12.07;86.25
62152;BME280;48139;47.474;19.034;2023-02-17T14:53:48;101044.06;;;12.00;86.48
62152;BME280;48139;47.474;19.034;2023-02-17T14:57:07;101040.25;;;12.07;87.18
62152;BME280;48139;47.474;19.034;2023-02-17T15:00:13;101029.22;;;11.99;83.40
62152;BME280;48139;47.474;19.034;2023-02-17T15:03:16;101033.37;;;11.85;83.64
62152;BME280;48139;47.474;19.034;2023-02-17T15:06:26;101017.06;;;11.77;83.99
62152;BME280;48139;47.474;19.034;2023-02-17T15:09:33;101010.47;;;11.66;83.10
62152;BME280;48139;47.474;19.034;2023-02-17T15:12:36;101009.56;;;11.46;86.07
62152;BME280;48139;47.474;19.034;2023-02-17T15:15:38;101010.37;;;11.48;88.95
62152;BME280;48139;47.474;19.034;2023-02-17T15:18:46;100999.34;;;11.82;82.08
62152;BME280;48139;47.474;19.034;2023-02-17T15:21:50;101002.22;;;11.76;85.10
62152;BME280;48139;47.474;19.034;2023-02-17T15:24:53;101000.25;;;11.81;81.68
62152;BME280;48139;47.474;19.034;2023-02-17T15:27:56;100992.66;;;11.75;80.68
62152;BME280;48139;47.474;19.034;2023-02-17T15:31:00;100993.50;;;11.53;84.31
62152;BME280;48139;47.474;19.034;2023-02-17T15:34:05;100991.22;;;11.24;89.57
62152;BME280;48139;47.474;19.034;2023-02-17T15:37:14;100992.66;;;11.31;83.68
62152;BME280;48139;47.474;19.034;2023-02-17T15:40:21;100986.00;;;11.44;82.34
62152;BME280;48139;47.474;19.034;2023-02-17T15:43:32;100982.41;;;11.47;81.38
62152;BME280;48139;47.474;19.034;2023-02-17T15:46:40;100987.34;;;11.32;81.81
62152;BME280;48139;47.474;19.034;2023-02-17T15:49:44;100988.03;;;11.16;83.61
62152;BME280;48139;47.474;19.034;2023-02-17T15:52:50;100997.25;;;11.26;83.59
62152;BME280;48139;47.474;19.034;2023-02-17T15:55:53;101004.34;;;11.24;85.75
62152;BME280;48139;47.474;19.034;2023-02-17T15:58:57;101007.63;;;11.06;89.84
62152;BME280;48139;47.474;19.034;2023-02-17T16:02:16;101012.28;;;10.76;90.07
62152;BME280;48139;47.474;19.034;2023-02-17T16:05:25;101016.41;;;10.83;90.87
62152;BME280;48139;47.474;19.034;2023-02-17T16:08:28;101004.44;;;10.99;87.48
62152;BME280;48139;47.474;19.034;2023-02-17T16:11:32;100992.75;;;10.84;88.98
62152;BME280;48139;47.474;19.034;2023-02-17T16:14:35;100987.94;;;10.96;86.01
62152;BME280;48139;47.474;19.034;2023-02-17T16:17:39;100992.84;;;10.81;88.32
62152;BME280;48139;47.474;19.034;2023-02-17T16:20:42;100984.78;;;10.64;94.33
62152;BME280;48139;47.474;19.034;2023-02-17T16:23:45;100983.84;;;10.88;88.12
62152;BME280;48139;47.474;19.034;2023-02-17T16:26:48;100981.06;;;10.93;86.16
62152;BME280;48139;47.474;19.034;2023-02-17T16:29:51;100979.59;;;10.86;89.03
62152;BME280;48139;47.474;19.034;2023-02-17T16:32:54;100983.38;;;10.79;89.60
